createdAt,value
2019-02-11T00:02:14.156Z,91.30
2019-02-11T00:04:43.922Z,91.60
2019-02-11T00:07:13.698Z,91.60
2019-02-11T00:09:43.464Z,91.80
2019-02-11T00:12:13.268Z,91.80
2019-02-11T00:14:43.032Z,91.80
2019-02-11T00:17:12.822Z,91.80
2019-02-11T00:19:42.668Z,91.90
2019-02-11T00:22:12.455Z,91.70
2019-02-11T00:24:42.245Z,91.70
2019-02-11T00:27:12.027Z,91.70
2019-02-11T00:29:41.799Z,91.40
2019-02-11T00:32:11.583Z,91.60
2019-02-11T00:34:41.364Z,91.10
2019-02-11T00:37:11.135Z,91.20
2019-02-11T00:39:40.920Z,91.30
2019-02-11T00:42:10.690Z,91.40
2019-02-11T00:44:40.469Z,91.30
2019-02-11T00:47:10.248Z,91.40
2019-02-11T00:49:40.025Z,91.70
2019-02-11T00:52:09.790Z,91.60
2019-02-11T00:54:39.585Z,91.50
2019-02-11T00:57:09.351Z,91.10
2019-02-11T00:59:39.147Z,91.30
2019-02-11T01:02:09.258Z,91.40
2019-02-11T01:04:39.037Z,91.10
2019-02-11T01:07:08.827Z,91.10
2019-02-11T01:09:39.680Z,91.20
2019-02-11T01:12:09.443Z,91.40
2019-02-11T01:14:39.229Z,91.10
2019-02-11T01:17:09.011Z,91.00
2019-02-11T01:19:38.801Z,91.10
2019-02-11T01:22:08.563Z,91.10
2019-02-11T01:24:38.342Z,91.30
2019-02-11T01:27:08.127Z,91.30
2019-02-11T01:29:37.896Z,91.30
2019-02-11T01:32:07.684Z,91.00
2019-02-11T01:34:37.447Z,91.10
2019-02-11T01:37:07.231Z,91.00
2019-02-11T01:39:37.000Z,91.30
2019-02-11T01:42:06.772Z,90.90
2019-02-11T01:44:36.546Z,91.30
2019-02-11T01:47:06.319Z,91.20
2019-02-11T01:49:36.098Z,91.40
2019-02-11T01:52:05.883Z,91.20
2019-02-11T01:54:35.661Z,91.30
2019-02-11T01:57:05.448Z,91.30
2019-02-11T01:59:35.226Z,91.10
2019-02-11T02:02:05.011Z,91.00
2019-02-11T02:04:34.780Z,91.00
2019-02-11T02:07:04.707Z,91.20
2019-02-11T02:09:34.491Z,91.20
2019-02-11T02:12:04.261Z,91.20
2019-02-11T02:14:34.050Z,91.30
2019-02-11T02:17:03.817Z,91.40
2019-02-11T02:19:33.585Z,91.30
2019-02-11T02:22:03.375Z,91.40
2019-02-11T02:24:33.160Z,91.40
2019-02-11T02:27:02.922Z,91.40
2019-02-11T02:29:32.780Z,91.40
2019-02-11T02:32:02.557Z,91.30
2019-02-11T02:34:32.339Z,91.30
2019-02-11T02:37:02.107Z,91.50
2019-02-11T02:39:31.886Z,91.30
2019-02-11T02:42:01.662Z,91.30
2019-02-11T02:44:31.445Z,91.40
2019-02-11T02:47:01.220Z,91.30
2019-02-11T02:49:31.003Z,91.30
2019-02-11T02:52:00.765Z,91.10
2019-02-11T02:54:30.609Z,91.00
2019-02-11T02:57:00.389Z,91.00
2019-02-11T02:59:30.351Z,91.00
2019-02-11T03:02:01.196Z,90.80
2019-02-11T03:04:31.944Z,90.80
2019-02-11T03:07:01.712Z,90.80
2019-02-11T03:09:31.670Z,90.90
2019-02-11T03:12:01.513Z,90.80
2019-02-11T03:14:31.275Z,90.80
2019-02-11T03:17:01.057Z,90.70
2019-02-11T03:19:30.838Z,90.30
2019-02-11T03:22:00.608Z,90.50
2019-02-11T03:24:30.394Z,90.50
2019-02-11T03:27:00.188Z,90.10
2019-02-11T03:29:29.947Z,90.00
2019-02-11T03:32:00.158Z,89.40
2019-02-11T03:34:29.970Z,89.50
2019-02-11T03:36:59.750Z,90.10
2019-02-11T03:39:29.524Z,90.10
2019-02-11T03:41:59.580Z,90.30
2019-02-11T03:44:29.345Z,90.20
2019-02-11T03:46:59.128Z,90.40
2019-02-11T03:49:28.893Z,90.40
2019-02-11T03:51:58.682Z,90.40
2019-02-11T03:54:28.456Z,90.50
2019-02-11T03:56:58.243Z,90.40
2019-02-11T03:59:28.012Z,90.60
2019-02-11T04:01:57.819Z,90.70
2019-02-11T04:04:27.578Z,90.80
2019-02-11T04:06:57.368Z,90.60
2019-02-11T04:09:27.150Z,90.80
2019-02-11T04:11:56.947Z,91.10
2019-02-11T04:14:26.719Z,90.50
2019-02-11T04:16:56.499Z,90.70
2019-02-11T04:19:27.082Z,90.60
2019-02-11T04:22:27.040Z,90.60
2019-02-11T04:24:56.818Z,90.60
2019-02-11T04:27:26.612Z,90.50
2019-02-11T04:29:56.382Z,90.40
2019-02-11T04:32:26.171Z,90.40
2019-02-11T04:34:55.938Z,90.30
2019-02-11T04:37:25.727Z,90.10
2019-02-11T04:39:55.498Z,89.90
2019-02-11T04:42:25.297Z,90.30
2019-02-11T04:44:55.080Z,89.80
2019-02-11T04:47:24.900Z,89.90
2019-02-11T04:49:54.674Z,89.70
2019-02-11T04:52:24.459Z,89.90
2019-02-11T04:54:54.244Z,89.80
2019-02-11T04:57:24.014Z,89.30
2019-02-11T04:59:53.805Z,89.20
2019-02-11T05:02:23.579Z,89.40
2019-02-11T05:04:53.368Z,89.60
2019-02-11T05:07:23.140Z,89.60
2019-02-11T05:09:52.923Z,89.40
2019-02-11T05:12:22.705Z,89.50
2019-02-11T05:14:52.500Z,89.20
2019-02-11T05:17:22.344Z,88.30
2019-02-11T05:19:52.314Z,88.80
2019-02-11T05:22:23.687Z,88.90
2019-02-11T05:24:53.480Z,88.80
2019-02-11T05:27:23.242Z,88.70
2019-02-11T05:29:53.018Z,88.50
2019-02-11T05:32:22.793Z,88.90
2019-02-11T05:34:52.593Z,89.00
2019-02-11T05:37:22.380Z,89.00
2019-02-11T05:40:04.156Z,88.90
2019-02-11T05:42:33.934Z,88.60
2019-02-11T05:45:04.510Z,88.90
2019-02-11T05:47:34.291Z,88.90
2019-02-11T05:50:06.505Z,89.10
2019-02-11T05:52:36.278Z,89.20
2019-02-11T05:55:07.304Z,89.20
2019-02-11T05:57:37.102Z,89.10
2019-02-11T06:00:10.687Z,88.20
2019-02-11T06:02:40.489Z,88.10
2019-02-11T06:05:10.386Z,88.10
2019-02-11T06:07:40.179Z,88.80
2019-02-11T06:10:10.931Z,88.60
2019-02-11T06:12:40.773Z,87.90
2019-02-11T06:15:10.531Z,88.50
2019-02-11T06:17:40.332Z,88.60
2019-02-11T06:20:10.480Z,88.30
2019-02-11T06:22:41.230Z,88.40
2019-02-11T06:25:11.018Z,88.40
2019-02-11T06:27:40.798Z,88.70
2019-02-11T06:30:12.917Z,88.90
2019-02-11T06:32:42.704Z,88.90
2019-02-11T06:35:12.490Z,89.30
2019-02-11T06:37:42.267Z,89.10
2019-02-11T06:40:12.278Z,89.10
2019-02-11T06:42:42.074Z,88.60
2019-02-11T06:45:13.431Z,88.30
2019-02-11T06:47:43.462Z,88.60
2019-02-11T06:50:15.241Z,88.10
2019-02-11T06:52:45.047Z,88.20
2019-02-11T06:55:14.823Z,88.20
2019-02-11T06:57:44.616Z,88.10
2019-02-11T07:00:15.756Z,88.30
2019-02-11T07:02:45.600Z,88.10
2019-02-11T07:05:15.408Z,87.90
2019-02-11T07:07:45.170Z,88.00
2019-02-11T07:10:14.959Z,87.70
2019-02-11T07:12:44.741Z,87.40
2019-02-11T07:15:21.825Z,87.40
2019-02-11T07:17:46.862Z,87.60
2019-02-11T07:20:16.657Z,87.70
2019-02-11T07:22:46.432Z,87.80
2019-02-11T07:25:16.667Z,87.60
2019-02-11T07:27:46.591Z,87.60
2019-02-11T07:30:16.438Z,87.70
2019-02-11T07:32:46.211Z,87.70
2019-02-11T07:35:16.005Z,87.70
2019-02-11T07:37:45.777Z,88.00
2019-02-11T07:40:16.301Z,88.00
2019-02-11T07:42:50.666Z,88.00
2019-02-11T07:45:29.676Z,87.70
2019-02-11T07:47:53.704Z,87.50
2019-02-11T07:50:23.500Z,87.70
2019-02-11T07:52:53.269Z,87.40
2019-02-11T07:55:30.344Z,87.70
2019-02-11T07:58:00.119Z,87.00
2019-02-11T08:00:29.920Z,87.30
2019-02-11T08:02:59.697Z,87.30
2019-02-11T08:05:29.478Z,86.80
2019-02-11T08:07:59.263Z,87.00
2019-02-11T08:10:29.036Z,87.20
2019-02-11T08:12:58.820Z,86.70
2019-02-11T08:15:28.606Z,86.30
2019-02-11T08:17:58.382Z,86.70
2019-02-11T08:20:28.154Z,87.20
2019-02-11T08:22:57.934Z,86.40
2019-02-11T08:25:27.712Z,86.80
2019-02-11T08:27:57.496Z,87.30
2019-02-11T08:30:27.266Z,87.20
2019-02-11T08:32:57.055Z,87.20
2019-02-11T08:35:26.836Z,86.50
2019-02-11T08:37:56.631Z,86.10
2019-02-11T08:40:26.576Z,85.80
2019-02-11T08:42:56.362Z,85.40
2019-02-11T08:45:26.144Z,84.60
2019-02-11T08:47:55.925Z,84.50
2019-02-11T08:50:25.713Z,84.30
2019-02-11T08:52:55.586Z,84.50
2019-02-11T08:55:25.361Z,84.70
2019-02-11T08:57:55.146Z,83.30
2019-02-11T09:00:24.919Z,83.60
2019-02-11T09:02:54.729Z,83.90
2019-02-11T09:05:24.500Z,84.30
2019-02-11T09:07:54.291Z,83.70
2019-02-11T09:10:24.059Z,84.10
2019-02-11T09:12:53.855Z,83.80
2019-02-11T09:15:23.633Z,83.90
2019-02-11T09:17:53.415Z,83.30
2019-02-11T09:20:23.208Z,83.40
2019-02-11T09:22:52.992Z,83.50
2019-02-11T09:25:22.775Z,83.30
2019-02-11T09:27:52.571Z,82.70
2019-02-11T09:30:22.355Z,83.20
2019-02-11T09:32:52.124Z,82.80
2019-02-11T09:35:21.906Z,82.40
2019-02-11T09:37:51.682Z,82.30
2019-02-11T09:40:21.499Z,82.60
2019-02-11T09:42:51.263Z,82.00
2019-02-11T09:45:26.470Z,81.30
2019-02-11T09:47:56.246Z,80.80
2019-02-11T09:50:38.104Z,81.70
2019-02-11T09:53:07.882Z,81.20
2019-02-11T09:55:37.671Z,81.70
2019-02-11T09:58:07.446Z,81.60
2019-02-11T10:00:37.284Z,81.40
2019-02-11T10:03:07.327Z,81.40
2019-02-11T10:05:37.124Z,81.90
2019-02-11T10:08:06.892Z,81.30
2019-02-11T10:10:36.686Z,81.20
2019-02-11T10:13:06.454Z,81.30
2019-02-11T10:15:36.252Z,81.50
2019-02-11T10:18:06.031Z,81.30
2019-02-11T10:20:35.798Z,81.30
2019-02-11T10:23:05.654Z,81.10
2019-02-11T10:25:35.440Z,81.00
2019-02-11T10:28:12.335Z,80.30
2019-02-11T10:30:42.108Z,79.80
2019-02-11T10:33:11.895Z,78.80
2019-02-11T10:35:42.533Z,78.50
2019-02-11T10:38:12.534Z,79.30
2019-02-11T10:40:42.306Z,79.20
2019-02-11T10:43:12.102Z,78.80
2019-02-11T10:45:42.021Z,78.50
2019-02-11T10:48:11.808Z,78.30
2019-02-11T10:50:41.588Z,78.80
2019-02-11T10:53:11.372Z,78.70
2019-02-11T10:55:41.157Z,78.40
2019-02-11T10:58:10.941Z,78.70
2019-02-11T11:00:41.490Z,77.10
2019-02-11T11:03:11.330Z,76.60
2019-02-11T11:05:41.193Z,76.40
2019-02-11T11:08:10.963Z,76.80
2019-02-11T11:10:40.755Z,75.90
2019-02-11T11:13:10.522Z,76.80
2019-02-11T11:15:40.306Z,76.40
2019-02-11T11:18:10.521Z,75.70
2019-02-11T11:20:40.320Z,76.10
2019-02-11T11:23:10.102Z,74.90
2019-02-11T11:25:39.891Z,75.50
2019-02-11T11:28:09.679Z,75.40
2019-02-11T11:30:39.648Z,75.50
2019-02-11T11:33:09.415Z,74.80
2019-02-11T11:35:39.287Z,75.00
2019-02-11T11:38:09.095Z,75.40
2019-02-11T11:40:38.901Z,75.90
2019-02-11T11:43:08.667Z,76.10
2019-02-11T11:45:38.522Z,75.60
2019-02-11T11:48:08.310Z,75.30
2019-02-11T11:50:38.101Z,75.00
2019-02-11T11:53:07.886Z,75.00
2019-02-11T11:55:37.681Z,75.40
2019-02-11T11:58:07.468Z,75.30
2019-02-11T12:00:37.589Z,75.40
2019-02-11T12:03:07.506Z,75.80
2019-02-11T12:05:37.290Z,75.90
2019-02-11T12:08:07.140Z,76.20
2019-02-11T12:10:37.987Z,75.80
2019-02-11T12:13:21.519Z,76.10
2019-02-11T12:15:40.127Z,76.20
2019-02-11T12:18:09.921Z,76.40
2019-02-11T12:20:39.687Z,77.00
2019-02-11T12:23:09.473Z,77.20
2019-02-11T12:25:39.248Z,77.60
2019-02-11T12:28:09.058Z,78.00
2019-02-11T12:30:39.042Z,79.00
2019-02-11T12:33:08.827Z,80.10
2019-02-11T12:35:38.608Z,80.90
2019-02-11T12:38:08.389Z,81.10
2019-02-11T12:40:38.171Z,81.40
2019-02-11T12:43:07.959Z,81.70
2019-02-11T12:45:37.730Z,82.80
2019-02-11T12:48:07.519Z,83.00
2019-02-11T12:50:37.360Z,83.30
2019-02-11T12:53:07.163Z,83.20
2019-02-11T12:55:37.005Z,83.00
2019-02-11T12:58:06.864Z,82.40
2019-02-11T13:00:36.887Z,82.50
2019-02-11T13:03:07.359Z,81.00
2019-02-11T13:05:45.110Z,81.20
2019-02-11T13:08:09.822Z,82.20
2019-02-11T13:10:39.622Z,81.00
2019-02-11T13:13:09.419Z,79.90
2019-02-11T13:15:58.904Z,79.70
2019-02-11T13:18:10.873Z,79.30
2019-02-11T13:20:40.867Z,78.80
2019-02-11T13:25:51.974Z,79.00
2019-02-11T13:28:21.756Z,79.30
2019-02-11T13:30:51.531Z,79.50
2019-02-11T13:33:21.351Z,79.60
2019-02-11T13:35:51.211Z,80.00
2019-02-11T13:38:21.170Z,80.10
2019-02-11T13:40:51.038Z,80.40
2019-02-11T13:43:20.815Z,80.60
2019-02-11T13:45:50.600Z,80.10
2019-02-11T13:48:20.444Z,81.30
2019-02-11T13:50:50.227Z,81.40
2019-02-11T13:53:20.075Z,80.80
2019-02-11T13:55:50.131Z,80.80
2019-02-11T13:58:19.984Z,81.50
2019-02-11T14:00:50.762Z,81.80
2019-02-11T14:03:20.985Z,81.60
2019-02-11T14:05:50.952Z,81.40
2019-02-11T14:08:20.858Z,82.20
2019-02-11T14:10:52.395Z,81.10
2019-02-11T14:13:22.158Z,80.50
2019-02-11T14:15:52.043Z,80.00
2019-02-11T14:18:21.815Z,79.10
2019-02-11T14:20:51.606Z,78.50
2019-02-11T14:23:21.403Z,80.00
2019-02-11T14:25:51.216Z,79.20
2019-02-11T14:28:21.047Z,78.90
2019-02-11T14:30:50.817Z,77.40
2019-02-11T14:33:20.772Z,79.50
2019-02-11T14:35:50.777Z,80.30
2019-02-11T14:38:21.838Z,81.10
2019-02-11T14:40:51.849Z,82.80
2019-02-11T14:43:21.774Z,81.50
2019-02-11T14:45:51.885Z,80.00
2019-02-11T14:48:27.581Z,78.50
2019-02-11T14:50:53.363Z,78.50
2019-02-11T14:53:24.829Z,78.80
2019-02-11T14:55:55.803Z,77.70
2019-02-11T14:58:25.594Z,77.60
2019-02-11T15:00:55.370Z,77.30
2019-02-11T15:03:25.160Z,77.40
2019-02-11T15:05:54.938Z,77.20
2019-02-11T15:08:24.762Z,77.70
2019-02-11T15:10:54.541Z,76.70
2019-02-11T15:13:24.330Z,76.90
2019-02-11T15:15:54.116Z,77.10
2019-02-11T15:18:23.899Z,76.50
2019-02-11T15:20:53.667Z,77.00
2019-02-11T15:23:23.440Z,76.30
2019-02-11T15:25:53.230Z,76.00
2019-02-11T15:28:22.994Z,75.80
2019-02-11T15:30:52.783Z,75.90
2019-02-11T15:33:22.551Z,75.90
2019-02-11T15:35:52.336Z,75.30
2019-02-11T15:38:22.116Z,76.00
2019-02-11T15:40:51.900Z,76.30
2019-02-11T15:43:21.675Z,76.00
2019-02-11T15:45:51.453Z,75.40
2019-02-11T15:48:22.294Z,75.80
2019-02-11T15:50:52.084Z,76.90
2019-02-11T15:53:21.847Z,75.10
2019-02-11T15:55:51.629Z,75.50
2019-02-11T15:58:21.435Z,75.90
2019-02-11T16:00:51.213Z,76.00
2019-02-11T16:03:21.004Z,76.00
2019-02-11T16:05:50.773Z,76.00
2019-02-11T16:08:20.547Z,76.20
2019-02-11T16:10:50.341Z,76.30
2019-02-11T16:13:20.136Z,77.30
2019-02-11T16:15:50.190Z,77.70
2019-02-11T16:18:20.044Z,77.70
2019-02-11T16:20:49.825Z,78.10
2019-02-11T16:23:19.603Z,79.00
2019-02-11T16:25:49.375Z,79.40
2019-02-11T16:28:19.169Z,79.70
2019-02-11T16:30:48.939Z,80.10
2019-02-11T16:33:18.737Z,80.70
2019-02-11T16:35:48.507Z,81.60
2019-02-11T16:38:18.367Z,81.00
2019-02-11T16:40:48.139Z,81.00
2019-02-11T16:43:17.923Z,81.50
2019-02-11T16:45:47.699Z,81.50
2019-02-11T16:48:17.487Z,81.50
2019-02-11T16:50:47.275Z,81.90
2019-02-11T16:53:17.066Z,82.10
2019-02-11T16:55:46.827Z,82.10
2019-02-11T16:58:16.715Z,82.20
2019-02-11T17:00:46.483Z,82.40
2019-02-11T17:03:16.271Z,82.50
2019-02-11T17:05:46.115Z,82.60
2019-02-11T17:08:15.910Z,82.70
2019-02-11T17:10:45.679Z,82.70
2019-02-11T17:13:15.459Z,82.40
2019-02-11T17:15:45.235Z,82.30
2019-02-11T17:18:15.041Z,82.40
2019-02-11T17:20:44.810Z,82.50
2019-02-11T17:23:14.588Z,87.30
2019-02-11T17:25:44.369Z,83.30
2019-02-11T17:28:14.169Z,82.20
2019-02-11T17:30:44.482Z,82.50
2019-02-11T17:33:14.270Z,80.90
2019-02-11T17:35:44.047Z,81.10
2019-02-11T17:38:13.854Z,79.90
2019-02-11T17:40:43.628Z,80.20
2019-02-11T17:43:13.414Z,78.90
2019-02-11T17:45:43.202Z,78.30
2019-02-11T17:48:12.975Z,78.20
2019-02-11T17:50:42.768Z,78.90
2019-02-11T17:53:15.700Z,77.00
2019-02-11T17:55:46.447Z,77.00
2019-02-11T17:58:17.156Z,77.30
2019-02-11T18:00:49.524Z,76.20
2019-02-11T18:03:19.290Z,76.00
2019-02-11T18:05:49.073Z,75.50
2019-02-11T18:08:18.842Z,75.80
2019-02-11T18:10:48.632Z,76.10
2019-02-11T18:13:18.426Z,76.70
2019-02-11T18:15:48.230Z,76.90
2019-02-11T18:18:17.996Z,75.10
2019-02-11T18:20:47.788Z,74.70
2019-02-11T18:23:17.560Z,75.00
2019-02-11T18:25:47.344Z,75.40
2019-02-11T18:28:17.134Z,76.00
2019-02-11T18:30:46.924Z,76.30
2019-02-11T18:33:16.700Z,76.60
2019-02-11T18:35:46.501Z,76.80
2019-02-11T18:38:16.284Z,76.80
2019-02-11T18:40:46.057Z,76.50
2019-02-11T18:43:15.848Z,76.60
2019-02-11T18:45:45.623Z,77.10
2019-02-11T18:48:15.407Z,76.80
2019-02-11T18:50:45.175Z,76.50
2019-02-11T18:53:14.975Z,76.80
2019-02-11T18:55:44.797Z,76.80
2019-02-11T18:58:14.595Z,77.20
2019-02-11T19:00:44.367Z,77.30
2019-02-11T19:03:14.290Z,77.70
2019-02-11T19:05:44.070Z,77.90
2019-02-11T19:08:13.855Z,77.50
2019-02-11T19:10:43.637Z,77.80
2019-02-11T19:13:14.497Z,77.80
2019-02-11T19:15:44.275Z,77.90
2019-02-11T19:18:14.073Z,78.80
2019-02-11T19:20:43.845Z,78.30
2019-02-11T19:23:14.026Z,78.50
2019-02-11T19:25:43.798Z,78.40
2019-02-11T19:28:13.571Z,78.50
2019-02-11T19:30:43.377Z,78.50
2019-02-11T19:33:13.140Z,78.40
2019-02-11T19:35:42.932Z,78.70
2019-02-11T19:38:12.694Z,78.70
2019-02-11T19:40:42.495Z,78.60
2019-02-11T19:43:12.259Z,78.80
2019-02-11T19:45:42.047Z,78.80
2019-02-11T19:48:11.983Z,78.40
2019-02-11T19:50:41.769Z,78.80
2019-02-11T19:53:11.545Z,79.00
2019-02-11T19:55:41.327Z,79.10
2019-02-11T19:58:11.185Z,79.30
2019-02-11T20:00:40.977Z,80.00
2019-02-11T20:03:10.763Z,79.10
2019-02-11T20:05:40.539Z,79.50
2019-02-11T20:08:10.336Z,79.60
2019-02-11T20:10:40.121Z,79.50
2019-02-11T20:13:09.902Z,79.50
2019-02-11T20:15:39.671Z,79.70
2019-02-11T20:18:09.484Z,79.90
2019-02-11T20:20:39.266Z,79.70
2019-02-11T20:23:09.054Z,80.00
2019-02-11T20:25:38.826Z,80.20
2019-02-11T20:28:08.612Z,79.90
2019-02-11T20:30:38.464Z,80.30
2019-02-11T20:33:08.261Z,80.90
2019-02-11T20:35:38.023Z,80.30
2019-02-11T20:38:07.822Z,80.60
2019-02-11T20:40:37.592Z,80.60
2019-02-11T20:43:07.376Z,80.70
2019-02-11T20:45:37.156Z,81.00
2019-02-11T20:48:06.948Z,80.80
2019-02-11T20:50:36.735Z,81.00
2019-02-11T20:53:06.516Z,81.20
2019-02-11T20:55:36.304Z,81.30
2019-02-11T20:58:06.096Z,81.50
2019-02-11T21:00:35.885Z,81.60
2019-02-11T21:03:08.423Z,82.00
2019-02-11T21:05:37.141Z,81.70
2019-02-11T21:08:06.930Z,81.60
2019-02-11T21:10:36.702Z,81.70
2019-02-11T21:13:06.502Z,81.70
2019-02-11T21:15:36.294Z,82.40
2019-02-11T21:18:06.144Z,81.50
2019-02-11T21:20:44.048Z,81.60
2019-02-11T21:23:14.012Z,81.80
2019-02-11T21:25:43.786Z,81.60
2019-02-11T21:28:13.577Z,81.70
2019-02-11T21:30:43.348Z,81.80
2019-02-11T21:33:13.115Z,82.00
2019-02-11T21:35:42.916Z,82.10
2019-02-11T21:38:12.693Z,82.10
2019-02-11T21:40:42.479Z,82.20
2019-02-11T21:43:13.228Z,82.30
2019-02-11T21:45:43.006Z,82.30
2019-02-11T21:48:12.782Z,82.40
2019-02-11T21:50:42.574Z,82.40
2019-02-11T21:53:12.358Z,82.70
2019-02-11T21:55:42.162Z,82.70
2019-02-11T21:58:11.958Z,82.70
2019-02-11T22:00:41.748Z,82.90
2019-02-11T22:03:11.514Z,82.90
2019-02-11T22:05:41.312Z,83.00
2019-02-11T22:08:12.217Z,83.00
2019-02-11T22:10:42.015Z,83.30
2019-02-11T22:13:11.793Z,83.20
2019-02-11T22:15:41.574Z,83.30
2019-02-11T22:18:11.388Z,83.50
2019-02-11T22:20:41.156Z,83.60
2019-02-11T22:23:10.934Z,83.60
2019-02-11T22:25:40.723Z,83.70
2019-02-11T22:28:10.499Z,83.70
2019-02-11T22:30:40.276Z,83.60
2019-02-11T22:33:10.068Z,83.70
2019-02-11T22:35:39.844Z,83.80
2019-02-11T22:38:09.628Z,83.70
2019-02-11T22:40:39.406Z,83.90
2019-02-11T22:43:10.264Z,84.10
2019-02-11T22:45:41.310Z,83.90
2019-02-11T22:48:11.208Z,83.90
2019-02-11T22:50:43.177Z,83.70
2019-02-11T22:53:12.478Z,83.70
2019-02-11T22:55:42.272Z,83.90
2019-02-11T22:58:12.114Z,83.80
2019-02-11T23:00:46.475Z,83.70
2019-02-11T23:03:17.941Z,83.80
2019-02-11T23:05:47.714Z,84.10
2019-02-11T23:08:17.512Z,83.70
2019-02-11T23:10:47.283Z,83.70
2019-02-11T23:13:17.084Z,83.60
2019-02-11T23:15:46.854Z,83.60
2019-02-11T23:18:16.638Z,83.50
2019-02-11T23:20:51.770Z,83.20
2019-02-11T23:23:17.905Z,83.10
2019-02-11T23:25:47.700Z,83.10
2019-02-11T23:28:17.472Z,83.10
2019-02-11T23:30:47.260Z,83.30
2019-02-11T23:33:17.298Z,83.00
2019-02-11T23:35:47.083Z,83.20
2019-02-11T23:38:16.855Z,83.50
2019-02-11T23:40:46.639Z,83.40
2019-02-11T23:43:16.405Z,83.50
2019-02-11T23:45:46.195Z,83.60
2019-02-11T23:48:15.965Z,83.80
2019-02-11T23:50:45.754Z,83.90
2019-02-11T23:53:15.986Z,84.00
2019-02-11T23:55:45.770Z,83.90
2019-02-11T23:58:15.539Z,84.10
